Linz Airport, Austria

10:12 AM CEST on September 02, 2014 (GMT +0200)
Linz | Change Station
CLOSE
Current Station
Airport
Location: Linz Airport,
Elevation: 1027 ft
Nearby Weather Stations
Active Advisory: Rain english:

Elev 1027 ft 48.23 °N, 14.19 °E | Updated 22 minutes ago

Light Rain
Light Rain
55 °F
Feels Like 55 °F
N
8
Wind Variable Wind from West

Today
High -- | Low -- °F
--% Chance of Precip.
Yesterday
High -- | Low -- °F
Precip. -- in
6:21 AM 7:43 PM
Waxing Crescent, 49% visible
Pressure 30.09 in
Visibility 3.7 miles
Clouds Few 800 ft
Mostly Cloudy 1100 ft
Overcast 6000 ft
Dew Point 54 °F
Humidity 94%
Rainfall 0.00 in
Snow Depth Not available.
UV 1 out of 12
Pollen Not available.
Air Quality Not available.
Flu Activity Not available.
METAR LOWL 020750Z 26007KT 6000 -RA FEW008 BKN011 OVC060 13/12 Q1019 TEMPO FEW008 SCT011

More Conditions Fewer Conditions

Pressure 30.09 in
Visibility 3.7 miles
Clouds Few 800 ft
Mostly Cloudy 1100 ft
Overcast 6000 ft
Dew Point 54 °F
Humidity 94%
Rainfall 0.00 in
Snow Depth Not available.
UV 1 out of 12
Pollen Not available.
Air Quality Not available.
Flu Activity Not available.
METAR LOWL 020750Z 26007KT 6000 -RA FEW008 BKN011 OVC060 13/12 Q1019 TEMPO FEW008 SCT011

More Conditions Fewer Conditions

10-Day Weather Forecast

Almanac

Astronomy

Sep. 02, 2014 Rise Set
Actual Time 6:21 AM CEST 7:43 PM CEST
Civil Twilight 5:49 AM CEST 8:15 PM CEST
Nautical Twilight 5:10 AM CEST 8:54 PM CEST
Astronomical Twilight 4:28 AM CEST 9:36 PM CEST
Moon 2:22 PM CEST 11:47 PM CEST
Length of Visible Light 14h 25m
Length of Day
13h 21m
Tomorrow will be 3m 24s shorter.
Waxing Crescent, 49% of the Moon is Illuminated
Today
Waxing Crescent
Sep 2
First Quarter
Sep 8
Full
Sep 15
Last Quarter
Sep 24
New

Yesterday's Extremes

Country Highs Country Lows

Community

WunderPhotos

Upload Photos

1,749,587 photos uploaded!

WunderBlogs® & News

Nearby

Snow Depth

Not available.

Earthquake Activity

City Distance Mag. Time & Date
No recent earthquake activity has been reported nearby.
Minimum magnitude displayed is 2.5.

Coastal Water Temperatures

Place Temperature
No Stations Reporting

Nearby Weather Stations